Terminal Aerodrome Forecast
Issued by NWS Blacksburg, VA

Current Version | Previous Version | Text Only | Print | Product List | Glossary Off
Versions: 1 2 3 4 5 6 7 8 9 10 11 12 13 14 15 16 17 18 19 20 21 22 23

000
FTUS41 KRNK 231731
TAFBLF
TAF
KBLF 231731Z 2318/2418 27012KT P6SM SCT050
     FM231900 27009KT P6SM VCTS BKN050CB
     FM232300 24006KT P6SM VCSH BKN080
     FM240800 27005KT P6SM BKN025
     FM241200 28009KT P6SM SCT250=

USA.gov is the U.S. government's official web portal to all federal, state and local government web resources and services.